sensor_id;sensor_type;location;lat;lon;timestamp;pressure;altitude;pressure_sealevel;temperature;humidity
68301;BME280;55146;47.468;18.806;2022-12-19T00:01:41;102359.34;;;-3.66;84.22
68301;BME280;55146;47.468;18.806;2022-12-19T00:04:09;102366.56;;;-3.67;84.18
68301;BME280;55146;47.468;18.806;2022-12-19T00:06:36;102364.94;;;-3.69;83.99
68301;BME280;55146;47.468;18.806;2022-12-19T00:09:02;102373.38;;;-3.62;83.98
68301;BME280;55146;47.468;18.806;2022-12-19T00:11:28;102374.97;;;-3.60;84.21
68301;BME280;55146;47.468;18.806;2022-12-19T00:13:54;102376.06;;;-3.62;83.86
68301;BME280;55146;47.468;18.806;2022-12-19T00:16:21;102380.22;;;-3.58;84.08
68301;BME280;55146;47.468;18.806;2022-12-19T00:18:48;102371.47;;;-3.72;83.86
68301;BME280;55146;47.468;18.806;2022-12-19T00:21:15;102375.72;;;-3.69;83.70
68301;BME280;55146;47.468;18.806;2022-12-19T00:23:42;102381.47;;;-3.74;83.86
68301;BME280;55146;47.468;18.806;2022-12-19T00:26:12;102375.22;;;-3.63;84.18
68301;BME280;55146;47.468;18.806;2022-12-19T00:28:38;102372.31;;;-3.71;84.55
68301;BME280;55146;47.468;18.806;2022-12-19T00:31:04;102373.88;;;-3.69;84.35
68301;BME280;55146;47.468;18.806;2022-12-19T00:33:30;102370.34;;;-3.69;84.25
68301;BME280;55146;47.468;18.806;2022-12-19T00:36:04;102371.81;;;-3.65;84.26
68301;BME280;55146;47.468;18.806;2022-12-19T00:38:30;102373.66;;;-3.65;84.23
68301;BME280;55146;47.468;18.806;2022-12-19T00:41:09;102373.25;;;-3.61;84.90
68301;BME280;55146;47.468;18.806;2022-12-19T00:43:34;102374.97;;;-3.60;84.60
68301;BME280;55146;47.468;18.806;2022-12-19T00:46:05;102370.81;;;-3.64;84.75
68301;BME280;55146;47.468;18.806;2022-12-19T00:48:31;102366.16;;;-3.62;84.96
68301;BME280;55146;47.468;18.806;2022-12-19T00:51:00;102360.03;;;-3.64;85.36
68301;BME280;55146;47.468;18.806;2022-12-19T00:53:26;102369.19;;;-3.55;85.41
68301;BME280;55146;47.468;18.806;2022-12-19T00:55:51;102365.66;;;-3.56;85.81
68301;BME280;55146;47.468;18.806;2022-12-19T00:58:17;102370.28;;;-3.58;85.80
68301;BME280;55146;47.468;18.806;2022-12-19T01:00:42;102368.81;;;-3.51;86.03
68301;BME280;55146;47.468;18.806;2022-12-19T01:03:07;102370.41;;;-3.48;86.17
68301;BME280;55146;47.468;18.806;2022-12-19T01:05:33;102356.69;;;-3.45;86.75
68301;BME280;55146;47.468;18.806;2022-12-19T01:07:58;102354.84;;;-3.45;86.95
68301;BME280;55146;47.468;18.806;2022-12-19T01:10:23;102357.00;;;-3.28;90.10
68301;BME280;55146;47.468;18.806;2022-12-19T01:12:49;102352.56;;;-3.17;91.10
68301;BME280;55146;47.468;18.806;2022-12-19T01:15:19;102352.59;;;-3.08;91.95
68301;BME280;55146;47.468;18.806;2022-12-19T01:17:48;102347.25;;;-2.87;92.28
68301;BME280;55146;47.468;18.806;2022-12-19T01:20:17;102341.41;;;-2.92;92.18
68301;BME280;55146;47.468;18.806;2022-12-19T01:22:43;102330.50;;;-2.91;93.79
68301;BME280;55146;47.468;18.806;2022-12-19T01:25:09;102320.78;;;-2.82;94.79
68301;BME280;55146;47.468;18.806;2022-12-19T01:27:34;102324.56;;;-2.64;94.17
68301;BME280;55146;47.468;18.806;2022-12-19T01:30:00;102323.44;;;-2.61;94.36
68301;BME280;55146;47.468;18.806;2022-12-19T01:32:25;102323.00;;;-2.66;94.16
68301;BME280;55146;47.468;18.806;2022-12-19T01:34:50;102320.56;;;-2.69;94.66
68301;BME280;55146;47.468;18.806;2022-12-19T01:37:16;102312.06;;;-2.65;94.46
68301;BME280;55146;47.468;18.806;2022-12-19T01:39:41;102305.00;;;-2.66;94.21
68301;BME280;55146;47.468;18.806;2022-12-19T01:42:21;102306.44;;;-2.62;94.69
68301;BME280;55146;47.468;18.806;2022-12-19T01:50:19;102317.66;;;-2.57;94.52
68301;BME280;55146;47.468;18.806;2022-12-19T01:52:47;102314.84;;;-2.55;94.71
68301;BME280;55146;47.468;18.806;2022-12-19T01:55:13;102314.22;;;-2.59;94.61
68301;BME280;55146;47.468;18.806;2022-12-19T01:57:39;102311.50;;;-2.68;94.81
68301;BME280;55146;47.468;18.806;2022-12-19T02:00:05;102318.19;;;-2.63;94.81
68301;BME280;55146;47.468;18.806;2022-12-19T02:02:37;102323.69;;;-2.64;94.44
68301;BME280;55146;47.468;18.806;2022-12-19T02:05:05;102321.94;;;-2.75;95.07
68301;BME280;55146;47.468;18.806;2022-12-19T02:07:31;102325.31;;;-2.82;95.99
68301;BME280;55146;47.468;18.806;2022-12-19T02:09:58;102326.34;;;-2.95;96.35
68301;BME280;55146;47.468;18.806;2022-12-19T02:12:25;102325.63;;;-2.76;95.87
68301;BME280;55146;47.468;18.806;2022-12-19T02:14:51;102328.84;;;-2.82;95.97
68301;BME280;55146;47.468;18.806;2022-12-19T02:17:30;102331.13;;;-2.77;95.79
68301;BME280;55146;47.468;18.806;2022-12-19T02:31:37;102343.69;;;-2.88;97.73
68301;BME280;55146;47.468;18.806;2022-12-19T02:34:32;102334.87;;;-2.90;98.05
68301;BME280;55146;47.468;18.806;2022-12-19T02:37:20;102351.53;;;-2.84;97.62
68301;BME280;55146;47.468;18.806;2022-12-19T02:39:50;102363.00;;;-2.82;97.86
68301;BME280;55146;47.468;18.806;2022-12-19T02:42:38;102353.22;;;-2.83;98.17
68301;BME280;55146;47.468;18.806;2022-12-19T02:45:07;102353.59;;;-2.67;97.83
68301;BME280;55146;47.468;18.806;2022-12-19T02:47:34;102346.22;;;-2.65;97.71
68301;BME280;55146;47.468;18.806;2022-12-19T02:50:00;102346.50;;;-2.68;97.81
68301;BME280;55146;47.468;18.806;2022-12-19T02:54:55;102341.03;;;-2.57;98.02
68301;BME280;55146;47.468;18.806;2022-12-19T02:57:29;102334.25;;;-2.52;97.79
68301;BME280;55146;47.468;18.806;2022-12-19T03:00:07;102323.66;;;-2.43;97.20
68301;BME280;55146;47.468;18.806;2022-12-19T03:05:17;102333.59;;;-2.44;97.62
68301;BME280;55146;47.468;18.806;2022-12-19T03:08:16;102335.72;;;-2.48;97.71
68301;BME280;55146;47.468;18.806;2022-12-19T03:11:03;102337.50;;;-2.58;97.84
68301;BME280;55146;47.468;18.806;2022-12-19T03:13:37;102334.09;;;-2.60;98.39
68301;BME280;55146;47.468;18.806;2022-12-19T03:16:08;102325.78;;;-2.47;98.07
68301;BME280;55146;47.468;18.806;2022-12-19T03:18:34;102317.44;;;-2.44;97.67
68301;BME280;55146;47.468;18.806;2022-12-19T03:21:11;102303.69;;;-2.41;98.12
68301;BME280;55146;47.468;18.806;2022-12-19T03:23:39;102303.53;;;-2.39;97.78
68301;BME280;55146;47.468;18.806;2022-12-19T03:26:11;102302.22;;;-2.55;98.79
68301;BME280;55146;47.468;18.806;2022-12-19T03:31:18;102307.22;;;-2.40;98.08
68301;BME280;55146;47.468;18.806;2022-12-19T03:33:47;102289.09;;;-2.38;98.48
68301;BME280;55146;47.468;18.806;2022-12-19T03:36:18;102292.62;;;-2.38;98.51
68301;BME280;55146;47.468;18.806;2022-12-19T03:38:47;102295.47;;;-2.39;98.51
68301;BME280;55146;47.468;18.806;2022-12-19T03:41:14;102291.37;;;-2.34;98.84
68301;BME280;55146;47.468;18.806;2022-12-19T03:44:01;102291.97;;;-2.30;98.62
68301;BME280;55146;47.468;18.806;2022-12-19T03:46:28;102297.47;;;-2.32;98.92
68301;BME280;55146;47.468;18.806;2022-12-19T03:48:53;102296.81;;;-2.15;98.10
68301;BME280;55146;47.468;18.806;2022-12-19T03:51:38;102297.84;;;-2.06;97.32
68301;BME280;55146;47.468;18.806;2022-12-19T03:54:24;102298.84;;;-2.07;97.42
68301;BME280;55146;47.468;18.806;2022-12-19T03:59:42;102306.66;;;-1.94;96.99
68301;BME280;55146;47.468;18.806;2022-12-19T04:02:09;102301.69;;;-1.99;97.13
68301;BME280;55146;47.468;18.806;2022-12-19T04:04:39;102296.75;;;-1.94;97.07
68301;BME280;55146;47.468;18.806;2022-12-19T04:07:06;102301.56;;;-1.88;97.06
68301;BME280;55146;47.468;18.806;2022-12-19T04:09:34;102297.41;;;-2.01;97.18
68301;BME280;55146;47.468;18.806;2022-12-19T04:12:11;102299.44;;;-1.84;96.40
68301;BME280;55146;47.468;18.806;2022-12-19T04:14:38;102299.88;;;-1.89;96.18
68301;BME280;55146;47.468;18.806;2022-12-19T04:19:35;102305.69;;;-1.84;96.55
68301;BME280;55146;47.468;18.806;2022-12-19T04:22:24;102308.00;;;-1.79;96.19
68301;BME280;55146;47.468;18.806;2022-12-19T04:24:52;102306.28;;;-1.80;96.53
68301;BME280;55146;47.468;18.806;2022-12-19T04:27:20;102310.94;;;-1.82;96.73
68301;BME280;55146;47.468;18.806;2022-12-19T04:29:46;102302.16;;;-1.75;96.54
68301;BME280;55146;47.468;18.806;2022-12-19T04:32:12;102301.44;;;-1.77;96.50
68301;BME280;55146;47.468;18.806;2022-12-19T04:34:38;102300.84;;;-1.90;97.49
68301;BME280;55146;47.468;18.806;2022-12-19T04:37:04;102310.12;;;-1.64;96.29
68301;BME280;55146;47.468;18.806;2022-12-19T04:39:30;102298.88;;;-1.88;97.28
68301;BME280;55146;47.468;18.806;2022-12-19T04:41:55;102294.06;;;-1.75;97.12
68301;BME280;55146;47.468;18.806;2022-12-19T04:44:21;102283.84;;;-1.81;97.30
68301;BME280;55146;47.468;18.806;2022-12-19T04:46:46;102286.97;;;-1.85;98.25
68301;BME280;55146;47.468;18.806;2022-12-19T04:49:11;102284.53;;;-1.79;97.70
68301;BME280;55146;47.468;18.806;2022-12-19T04:51:37;102281.41;;;-1.93;98.27
68301;BME280;55146;47.468;18.806;2022-12-19T04:54:02;102297.28;;;-1.90;98.97
68301;BME280;55146;47.468;18.806;2022-12-19T04:56:27;102310.09;;;-1.83;98.36
68301;BME280;55146;47.468;18.806;2022-12-19T04:58:59;102307.66;;;-1.95;99.37
68301;BME280;55146;47.468;18.806;2022-12-19T05:01:25;102309.38;;;-1.85;99.20
68301;BME280;55146;47.468;18.806;2022-12-19T05:03:51;102309.78;;;-1.89;99.20
68301;BME280;55146;47.468;18.806;2022-12-19T05:06:17;102304.84;;;-1.84;98.69
68301;BME280;55146;47.468;18.806;2022-12-19T05:08:43;102310.09;;;-1.92;99.54
68301;BME280;55146;47.468;18.806;2022-12-19T05:11:10;102307.22;;;-1.91;99.39
68301;BME280;55146;47.468;18.806;2022-12-19T05:13:36;102306.53;;;-1.93;99.83
68301;BME280;55146;47.468;18.806;2022-12-19T05:16:06;102308.37;;;-1.84;99.66
68301;BME280;55146;47.468;18.806;2022-12-19T05:18:32;102310.53;;;-1.78;98.91
68301;BME280;55146;47.468;18.806;2022-12-19T05:20:57;102317.94;;;-1.70;98.67
68301;BME280;55146;47.468;18.806;2022-12-19T05:23:23;102299.91;;;-1.70;98.29
68301;BME280;55146;47.468;18.806;2022-12-19T05:25:50;102299.59;;;-1.67;98.86
68301;BME280;55146;47.468;18.806;2022-12-19T05:28:16;102297.75;;;-1.66;98.52
68301;BME280;55146;47.468;18.806;2022-12-19T05:30:42;102302.16;;;-1.65;98.23
68301;BME280;55146;47.468;18.806;2022-12-19T05:33:08;102308.44;;;-1.55;97.87
68301;BME280;55146;47.468;18.806;2022-12-19T05:35:35;102291.94;;;-1.71;98.79
68301;BME280;55146;47.468;18.806;2022-12-19T05:38:00;102292.94;;;-1.53;98.24
68301;BME280;55146;47.468;18.806;2022-12-19T05:40:26;102282.28;;;-1.83;99.93
68301;BME280;55146;47.468;18.806;2022-12-19T05:42:51;102296.47;;;-1.72;99.38
68301;BME280;55146;47.468;18.806;2022-12-19T05:45:17;102295.06;;;-1.76;99.45
68301;BME280;55146;47.468;18.806;2022-12-19T05:47:46;102299.59;;;-1.76;99.95
68301;BME280;55146;47.468;18.806;2022-12-19T05:50:13;102306.00;;;-1.77;100.00
68301;BME280;55146;47.468;18.806;2022-12-19T05:52:38;102303.75;;;-1.62;99.52
68301;BME280;55146;47.468;18.806;2022-12-19T05:55:04;102301.00;;;-1.72;99.78
68301;BME280;55146;47.468;18.806;2022-12-19T05:57:30;102294.59;;;-1.90;100.00
68301;BME280;55146;47.468;18.806;2022-12-19T05:59:55;102291.94;;;-1.71;99.92
68301;BME280;55146;47.468;18.806;2022-12-19T06:02:21;102292.78;;;-1.71;100.00
68301;BME280;55146;47.468;18.806;2022-12-19T06:04:46;102298.47;;;-1.74;100.00
68301;BME280;55146;47.468;18.806;2022-12-19T06:07:11;102295.63;;;-1.82;100.00
68301;BME280;55146;47.468;18.806;2022-12-19T06:09:37;102306.00;;;-1.68;100.00
68301;BME280;55146;47.468;18.806;2022-12-19T06:12:02;102303.72;;;-1.72;100.00
68301;BME280;55146;47.468;18.806;2022-12-19T06:14:27;102306.56;;;-1.64;100.00
68301;BME280;55146;47.468;18.806;2022-12-19T06:16:53;102310.25;;;-1.65;100.00
68301;BME280;55146;47.468;18.806;2022-12-19T06:19:18;102306.56;;;-1.64;100.00
68301;BME280;55146;47.468;18.806;2022-12-19T06:21:43;102305.44;;;-1.61;100.00
68301;BME280;55146;47.468;18.806;2022-12-19T06:24:09;102311.13;;;-1.55;99.96
68301;BME280;55146;47.468;18.806;2022-12-19T06:26:35;102315.81;;;-1.57;100.00
68301;BME280;55146;47.468;18.806;2022-12-19T06:29:00;102307.84;;;-1.58;100.00
68301;BME280;55146;47.468;18.806;2022-12-19T06:31:26;102308.28;;;-1.53;100.00
68301;BME280;55146;47.468;18.806;2022-12-19T06:33:51;102308.00;;;-1.50;99.93
68301;BME280;55146;47.468;18.806;2022-12-19T06:38:45;102316.81;;;-1.48;100.00
68301;BME280;55146;47.468;18.806;2022-12-19T06:41:10;102314.66;;;-1.35;100.00
68301;BME280;55146;47.468;18.806;2022-12-19T06:44:04;102314.94;;;-1.48;100.00
68301;BME280;55146;47.468;18.806;2022-12-19T06:46:29;102321.78;;;-1.34;100.00
68301;BME280;55146;47.468;18.806;2022-12-19T06:48:55;102315.38;;;-1.33;100.00
68301;BME280;55146;47.468;18.806;2022-12-19T06:51:21;102314.66;;;-1.35;100.00
68301;BME280;55146;47.468;18.806;2022-12-19T06:53:47;102304.03;;;-1.37;100.00
68301;BME280;55146;47.468;18.806;2022-12-19T06:56:14;102307.03;;;-1.30;100.00
68301;BME280;55146;47.468;18.806;2022-12-19T06:58:40;102310.97;;;-1.34;100.00
68301;BME280;55146;47.468;18.806;2022-12-19T07:01:05;102304.63;;;-1.43;100.00
68301;BME280;55146;47.468;18.806;2022-12-19T07:03:35;102309.84;;;-1.41;100.00
68301;BME280;55146;47.468;18.806;2022-12-19T07:06:02;102318.78;;;-1.41;100.00
68301;BME280;55146;47.468;18.806;2022-12-19T07:08:27;102315.97;;;-1.20;99.59
68301;BME280;55146;47.468;18.806;2022-12-19T07:10:54;102316.09;;;-1.22;99.50
68301;BME280;55146;47.468;18.806;2022-12-19T07:13:19;102323.22;;;-1.30;99.49
68301;BME280;55146;47.468;18.806;2022-12-19T07:15:45;102327.75;;;-1.31;99.83
68301;BME280;55146;47.468;18.806;2022-12-19T07:18:10;102328.47;;;-1.38;100.00
68301;BME280;55146;47.468;18.806;2022-12-19T07:20:37;102321.09;;;-1.36;100.00
68301;BME280;55146;47.468;18.806;2022-12-19T07:23:05;102322.78;;;-1.35;100.00
68301;BME280;55146;47.468;18.806;2022-12-19T07:25:32;102320.38;;;-1.38;100.00
68301;BME280;55146;47.468;18.806;2022-12-19T07:27:57;102313.12;;;-1.28;100.00
68301;BME280;55146;47.468;18.806;2022-12-19T07:30:22;102331.16;;;-1.19;99.94
68301;BME280;55146;47.468;18.806;2022-12-19T07:32:48;102329.72;;;-1.23;99.90
68301;BME280;55146;47.468;18.806;2022-12-19T07:35:13;102323.22;;;-1.30;100.00
68301;BME280;55146;47.468;18.806;2022-12-19T07:37:39;102323.06;;;-1.29;100.00
68301;BME280;55146;47.468;18.806;2022-12-19T07:40:05;102317.53;;;-1.17;100.00
68301;BME280;55146;47.468;18.806;2022-12-19T07:42:30;102313.53;;;-1.23;100.00
68301;BME280;55146;47.468;18.806;2022-12-19T07:44:56;102319.50;;;-1.10;99.89
68301;BME280;55146;47.468;18.806;2022-12-19T07:47:21;102313.97;;;-1.08;99.22
68301;BME280;55146;47.468;18.806;2022-12-19T07:49:46;102321.78;;;-1.15;99.35
68301;BME280;55146;47.468;18.806;2022-12-19T07:52:12;102334.41;;;-1.15;99.40
68301;BME280;55146;47.468;18.806;2022-12-19T07:54:37;102348.78;;;-1.34;100.00
68301;BME280;55146;47.468;18.806;2022-12-19T07:57:02;102349.47;;;-1.23;100.00
68301;BME280;55146;47.468;18.806;2022-12-19T07:59:28;102344.78;;;-1.11;100.00
68301;BME280;55146;47.468;18.806;2022-12-19T08:01:53;102351.78;;;-1.18;100.00
68301;BME280;55146;47.468;18.806;2022-12-19T08:04:19;102351.03;;;-1.10;99.89
68301;BME280;55146;47.468;18.806;2022-12-19T08:06:44;102365.81;;;-1.05;98.76
68301;BME280;55146;47.468;18.806;2022-12-19T08:09:11;102361.84;;;-1.01;97.85
68301;BME280;55146;47.468;18.806;2022-12-19T08:11:37;102361.84;;;-1.01;97.79
68301;BME280;55146;47.468;18.806;2022-12-19T08:14:02;102371.94;;;-1.03;97.20
68301;BME280;55146;47.468;18.806;2022-12-19T08:16:27;102367.38;;;-1.02;95.23
68301;BME280;55146;47.468;18.806;2022-12-19T08:18:53;102359.56;;;-0.96;95.15
68301;BME280;55146;47.468;18.806;2022-12-19T08:21:20;102356.03;;;-0.87;95.11
68301;BME280;55146;47.468;18.806;2022-12-19T08:23:45;102354.44;;;-0.99;95.13
68301;BME280;55146;47.468;18.806;2022-12-19T08:26:13;102343.34;;;-0.86;94.82
68301;BME280;55146;47.468;18.806;2022-12-19T08:28:40;102344.19;;;-0.76;93.76
68301;BME280;55146;47.468;18.806;2022-12-19T08:31:08;102338.75;;;-0.66;93.42
68301;BME280;55146;47.468;18.806;2022-12-19T08:33:34;102342.63;;;-0.78;93.15
68301;BME280;55146;47.468;18.806;2022-12-19T08:36:05;102334.78;;;-0.72;93.01
68301;BME280;55146;47.468;18.806;2022-12-19T08:38:30;102334.09;;;-0.84;93.07
68301;BME280;55146;47.468;18.806;2022-12-19T08:40:56;102329.97;;;-0.68;92.88
68301;BME280;55146;47.468;18.806;2022-12-19T08:43:21;102324.38;;;-0.57;92.71
68301;BME280;55146;47.468;18.806;2022-12-19T08:45:48;102319.50;;;-0.44;90.60
68301;BME280;55146;47.468;18.806;2022-12-19T08:48:14;102329.00;;;-0.40;88.38
68301;BME280;55146;47.468;18.806;2022-12-19T08:50:48;102334.34;;;-0.58;87.54
68301;BME280;55146;47.468;18.806;2022-12-19T08:53:13;102338.37;;;-0.34;84.69
68301;BME280;55146;47.468;18.806;2022-12-19T08:55:39;102334.38;;;-0.30;81.77
68301;BME280;55146;47.468;18.806;2022-12-19T08:58:04;102339.56;;;-0.47;81.97
68301;BME280;55146;47.468;18.806;2022-12-19T09:00:30;102339.09;;;-0.32;81.74
68301;BME280;55146;47.468;18.806;2022-12-19T09:02:55;102336.34;;;-0.23;81.54
68301;BME280;55146;47.468;18.806;2022-12-19T09:05:20;102324.87;;;-0.07;80.64
68301;BME280;55146;47.468;18.806;2022-12-19T09:07:45;102325.31;;;-0.12;80.35
68301;BME280;55146;47.468;18.806;2022-12-19T09:10:11;102314.97;;;0.11;81.70
68301;BME280;55146;47.468;18.806;2022-12-19T09:12:36;102317.50;;;0.13;79.81
68301;BME280;55146;47.468;18.806;2022-12-19T09:15:02;102317.22;;;0.16;80.53
68301;BME280;55146;47.468;18.806;2022-12-19T09:17:27;102330.06;;;0.31;79.73
68301;BME280;55146;47.468;18.806;2022-12-19T09:19:53;102339.38;;;0.47;78.87
68301;BME280;55146;47.468;18.806;2022-12-19T09:22:18;102340.97;;;0.39;77.33
68301;BME280;55146;47.468;18.806;2022-12-19T09:24:45;102341.03;;;0.12;78.67
68301;BME280;55146;47.468;18.806;2022-12-19T09:27:10;102338.50;;;0.28;78.89
68301;BME280;55146;47.468;18.806;2022-12-19T09:29:36;102326.50;;;0.31;78.73
68301;BME280;55146;47.468;18.806;2022-12-19T09:32:01;102333.31;;;0.35;78.51
68301;BME280;55146;47.468;18.806;2022-12-19T09:34:27;102326.53;;;0.49;78.20
68301;BME280;55146;47.468;18.806;2022-12-19T09:36:52;102319.31;;;0.39;77.80
68301;BME280;55146;47.468;18.806;2022-12-19T09:39:18;102309.66;;;0.37;77.63
68301;BME280;55146;47.468;18.806;2022-12-19T09:47:13;102297.66;;;0.75;78.56
68301;BME280;55146;47.468;18.806;2022-12-19T09:49:43;102292.97;;;1.03;77.41
68301;BME280;55146;47.468;18.806;2022-12-19T09:52:16;102298.63;;;1.09;76.68
68301;BME280;55146;47.468;18.806;2022-12-19T09:54:47;102298.19;;;0.96;76.65
68301;BME280;55146;47.468;18.806;2022-12-19T09:57:20;102281.84;;;0.88;75.72
68301;BME280;55146;47.468;18.806;2022-12-19T09:59:53;102279.41;;;0.77;75.53
68301;BME280;55146;47.468;18.806;2022-12-19T10:02:25;102277.72;;;1.02;75.59
68301;BME280;55146;47.468;18.806;2022-12-19T10:07:29;102274.72;;;1.05;75.06
68301;BME280;55146;47.468;18.806;2022-12-19T10:09:54;102266.44;;;0.89;75.20
68301;BME280;55146;47.468;18.806;2022-12-19T10:12:43;102267.63;;;0.86;76.53
68301;BME280;55146;47.468;18.806;2022-12-19T10:15:24;102276.09;;;0.65;76.16
68301;BME280;55146;47.468;18.806;2022-12-19T10:18:03;102275.75;;;0.86;75.75
68301;BME280;55146;47.468;18.806;2022-12-19T10:20:40;102267.81;;;0.67;76.02
68301;BME280;55146;47.468;18.806;2022-12-19T10:26:33;102265.78;;;1.12;74.97
68301;BME280;55146;47.468;18.806;2022-12-19T10:32:19;102254.94;;;1.12;75.35
68301;BME280;55146;47.468;18.806;2022-12-19T10:34:43;102268.91;;;1.00;75.02
68301;BME280;55146;47.468;18.806;2022-12-19T10:37:24;102258.47;;;1.05;74.68
68301;BME280;55146;47.468;18.806;2022-12-19T10:40:24;102252.84;;;1.06;74.16
68301;BME280;55146;47.468;18.806;2022-12-19T10:43:19;102244.31;;;1.19;74.37
68301;BME280;55146;47.468;18.806;2022-12-19T10:45:53;102242.19;;;1.65;74.25
68301;BME280;55146;47.468;18.806;2022-12-19T10:48:22;102241.75;;;1.93;72.86
68301;BME280;55146;47.468;18.806;2022-12-19T10:50:48;102236.56;;;2.08;70.91
68301;BME280;55146;47.468;18.806;2022-12-19T10:53:15;102234.22;;;1.29;73.49
68301;BME280;55146;47.468;18.806;2022-12-19T10:55:47;102226.25;;;1.70;71.68
68301;BME280;55146;47.468;18.806;2022-12-19T11:01:02;102232.44;;;2.04;72.15
68301;BME280;55146;47.468;18.806;2022-12-19T11:03:30;102227.03;;;1.96;70.63
68301;BME280;55146;47.468;18.806;2022-12-19T11:05:57;102218.62;;;1.65;71.73
68301;BME280;55146;47.468;18.806;2022-12-19T11:08:35;102227.03;;;1.96;71.40
68301;BME280;55146;47.468;18.806;2022-12-19T11:16:03;102222.63;;;2.11;70.69
68301;BME280;55146;47.468;18.806;2022-12-19T11:18:45;102226.53;;;2.17;70.62
68301;BME280;55146;47.468;18.806;2022-12-19T11:21:19;102224.62;;;1.85;71.61
68301;BME280;55146;47.468;18.806;2022-12-19T11:23:51;102211.09;;;1.51;72.29
68301;BME280;55146;47.468;18.806;2022-12-19T11:26:39;102209.63;;;1.65;72.04
68301;BME280;55146;47.468;18.806;2022-12-19T11:32:21;102205.03;;;1.23;72.89
68301;BME280;55146;47.468;18.806;2022-12-19T11:34:48;102202.84;;;1.27;73.70
68301;BME280;55146;47.468;18.806;2022-12-19T11:37:25;102194.16;;;1.57;73.30
68301;BME280;55146;47.468;18.806;2022-12-19T11:40:01;102188.97;;;1.80;72.46
68301;BME280;55146;47.468;18.806;2022-12-19T11:43:07;102187.38;;;1.61;72.39
68301;BME280;55146;47.468;18.806;2022-12-19T11:45:49;102187.00;;;1.40;73.04
68301;BME280;55146;47.468;18.806;2022-12-19T11:56:28;102176.63;;;1.93;71.17
68301;BME280;55146;47.468;18.806;2022-12-19T11:58:56;102171.16;;;1.69;71.46
68301;BME280;55146;47.468;18.806;2022-12-19T12:04:48;102172.22;;;1.92;72.13
68301;BME280;55146;47.468;18.806;2022-12-19T12:07:05;102160.34;;;1.77;71.51
68301;BME280;55146;47.468;18.806;2022-12-19T12:12:24;102155.81;;;1.36;72.49
68301;BME280;55146;47.468;18.806;2022-12-19T12:20:54;102144.19;;;1.59;72.90
68301;BME280;55146;47.468;18.806;2022-12-19T12:23:45;102144.25;;;1.34;73.00
68301;BME280;55146;47.468;18.806;2022-12-19T12:26:25;102147.47;;;1.37;72.81
68301;BME280;55146;47.468;18.806;2022-12-19T12:29:14;102145.41;;;1.23;73.35
68301;BME280;55146;47.468;18.806;2022-12-19T12:40:12;102159.63;;;1.17;74.49
68301;BME280;55146;47.468;18.806;2022-12-19T12:45:42;102164.59;;;1.30;74.46
68301;BME280;55146;47.468;18.806;2022-12-19T12:48:32;102156.38;;;1.13;74.16
68301;BME280;55146;47.468;18.806;2022-12-19T12:50:59;102153.59;;;1.05;74.85
68301;BME280;55146;47.468;18.806;2022-12-19T12:53:30;102150.50;;;0.92;75.54
68301;BME280;55146;47.468;18.806;2022-12-19T12:55:58;102139.34;;;0.95;75.25
68301;BME280;55146;47.468;18.806;2022-12-19T13:01:32;102127.69;;;1.03;75.24
68301;BME280;55146;47.468;18.806;2022-12-19T13:04:06;102122.28;;;1.03;75.22
68301;BME280;55146;47.468;18.806;2022-12-19T13:14:49;102120.03;;;0.64;76.88
68301;BME280;55146;47.468;18.806;2022-12-19T13:24:57;102108.13;;;0.31;78.31
68301;BME280;55146;47.468;18.806;2022-12-19T13:38:21;102091.03;;;0.31;79.14
68301;BME280;55146;47.468;18.806;2022-12-19T13:43:20;102086.88;;;0.36;78.60
68301;BME280;55146;47.468;18.806;2022-12-19T13:46:35;102084.63;;;0.32;78.42
68301;BME280;55146;47.468;18.806;2022-12-19T13:49:13;102075.62;;;0.23;79.17
68301;BME280;55146;47.468;18.806;2022-12-19T13:51:48;102096.88;;;0.44;78.52
68301;BME280;55146;47.468;18.806;2022-12-19T13:54:27;102098.00;;;0.33;78.87
68301;BME280;55146;47.468;18.806;2022-12-19T13:56:54;102087.09;;;0.25;79.47
68301;BME280;55146;47.468;18.806;2022-12-19T13:59:21;102086.12;;;0.52;78.51
68301;BME280;55146;47.468;18.806;2022-12-19T14:01:49;102097.06;;;0.43;78.13
68301;BME280;55146;47.468;18.806;2022-12-19T14:04:30;102092.94;;;0.13;79.51
68301;BME280;55146;47.468;18.806;2022-12-19T14:07:05;102099.47;;;0.28;78.93
68301;BME280;55146;47.468;18.806;2022-12-19T14:09:43;102095.84;;;0.19;79.07
68301;BME280;55146;47.468;18.806;2022-12-19T14:12:18;102087.63;;;0.03;80.44
68301;BME280;55146;47.468;18.806;2022-12-19T14:17:49;102074.56;;;0.42;78.58
68301;BME280;55146;47.468;18.806;2022-12-19T14:20:23;102082.69;;;0.42;78.36
68301;BME280;55146;47.468;18.806;2022-12-19T14:22:49;102079.94;;;0.16;79.56
68301;BME280;55146;47.468;18.806;2022-12-19T14:25:14;102074.31;;;0.10;79.85
68301;BME280;55146;47.468;18.806;2022-12-19T14:27:53;102070.69;;;0.01;80.31
68301;BME280;55146;47.468;18.806;2022-12-19T14:30:31;102069.31;;;-0.03;80.48
68301;BME280;55146;47.468;18.806;2022-12-19T14:33:02;102073.97;;;-0.13;80.96
68301;BME280;55146;47.468;18.806;2022-12-19T14:35:33;102076.38;;;-0.28;81.82
68301;BME280;55146;47.468;18.806;2022-12-19T14:38:01;102064.78;;;-0.20;81.42
68301;BME280;55146;47.468;18.806;2022-12-19T14:40:30;102068.63;;;-0.23;82.21
68301;BME280;55146;47.468;18.806;2022-12-19T14:43:03;102084.72;;;-0.21;81.64
68301;BME280;55146;47.468;18.806;2022-12-19T14:45:48;102081.41;;;-0.33;82.10
68301;BME280;55146;47.468;18.806;2022-12-19T14:48:50;102084.34;;;-0.44;82.60
68301;BME280;55146;47.468;18.806;2022-12-19T14:51:36;102073.53;;;-0.44;82.62
68301;BME280;55146;47.468;18.806;2022-12-19T14:54:13;102070.03;;;-0.36;82.74
68301;BME280;55146;47.468;18.806;2022-12-19T14:59:17;102070.63;;;-0.43;83.07
68301;BME280;55146;47.468;18.806;2022-12-19T15:01:51;102065.56;;;-0.46;83.08